sensor_id;sensor_type;location;lat;lon;timestamp;temperature;humidity
13091;DHT22;6611;52.604;13.438;2024-03-25T00:02:30;6.54;86.10
13091;DHT22;6611;52.604;13.438;2024-03-25T00:07:33;6.57;85.90
13091;DHT22;6611;52.604;13.438;2024-03-25T00:12:34;6.53;85.98
13091;DHT22;6611;52.604;13.438;2024-03-25T00:17:36;6.54;86.02
13091;DHT22;6611;52.604;13.438;2024-03-25T00:22:39;6.54;86.12
13091;DHT22;6611;52.604;13.438;2024-03-25T00:27:41;6.55;85.84
13091;DHT22;6611;52.604;13.438;2024-03-25T00:32:45;6.50;85.96
13091;DHT22;6611;52.604;13.438;2024-03-25T00:37:48;6.47;86.19
13091;DHT22;6611;52.604;13.438;2024-03-25T00:42:53;6.53;86.04
13091;DHT22;6611;52.604;13.438;2024-03-25T00:47:54;6.48;86.18
13091;DHT22;6611;52.604;13.438;2024-03-25T00:52:57;6.44;86.48
13091;DHT22;6611;52.604;13.438;2024-03-25T00:57:59;6.50;86.05
13091;DHT22;6611;52.604;13.438;2024-03-25T01:03:01;6.45;86.14
13091;DHT22;6611;52.604;13.438;2024-03-25T01:08:07;6.51;86.04
13091;DHT22;6611;52.604;13.438;2024-03-25T01:13:11;6.58;86.10
13091;DHT22;6611;52.604;13.438;2024-03-25T01:18:13;6.53;85.99
13091;DHT22;6611;52.604;13.438;2024-03-25T01:23:16;6.58;85.58
13091;DHT22;6611;52.604;13.438;2024-03-25T01:28:18;6.61;85.81
13091;DHT22;6611;52.604;13.438;2024-03-25T01:33:20;6.64;85.64
13091;DHT22;6611;52.604;13.438;2024-03-25T01:38:23;6.64;85.53
13091;DHT22;6611;52.604;13.438;2024-03-25T01:43:24;6.58;85.80
13091;DHT22;6611;52.604;13.438;2024-03-25T01:48:26;6.60;85.96
13091;DHT22;6611;52.604;13.438;2024-03-25T01:53:30;6.60;85.99
13091;DHT22;6611;52.604;13.438;2024-03-25T01:58:34;6.60;86.14
13091;DHT22;6611;52.604;13.438;2024-03-25T02:03:37;6.61;85.97
13091;DHT22;6611;52.604;13.438;2024-03-25T02:08:41;6.61;86.10
13091;DHT22;6611;52.604;13.438;2024-03-25T02:13:43;6.63;86.35
13091;DHT22;6611;52.604;13.438;2024-03-25T02:18:44;6.65;85.94
13091;DHT22;6611;52.604;13.438;2024-03-25T02:23:48;6.54;86.72
13091;DHT22;6611;52.604;13.438;2024-03-25T02:28:51;6.48;86.68
13091;DHT22;6611;52.604;13.438;2024-03-25T02:33:53;6.43;86.29
13091;DHT22;6611;52.604;13.438;2024-03-25T02:38:55;6.38;85.79
13091;DHT22;6611;52.604;13.438;2024-03-25T02:43:58;6.32;85.70
13091;DHT22;6611;52.604;13.438;2024-03-25T02:49:00;6.23;85.90
13091;DHT22;6611;52.604;13.438;2024-03-25T02:54:01;6.22;85.98
13091;DHT22;6611;52.604;13.438;2024-03-25T02:59:04;6.27;85.82
13091;DHT22;6611;52.604;13.438;2024-03-25T03:04:07;6.25;86.14
13091;DHT22;6611;52.604;13.438;2024-03-25T03:09:09;6.15;86.23
13091;DHT22;6611;52.604;13.438;2024-03-25T03:14:12;6.09;86.81
13091;DHT22;6611;52.604;13.438;2024-03-25T03:19:14;6.13;86.66
13091;DHT22;6611;52.604;13.438;2024-03-25T03:24:15;6.17;86.38
13091;DHT22;6611;52.604;13.438;2024-03-25T03:29:18;6.15;86.87
13091;DHT22;6611;52.604;13.438;2024-03-25T03:34:23;6.22;86.84
13091;DHT22;6611;52.604;13.438;2024-03-25T03:39:24;6.20;86.67
13091;DHT22;6611;52.604;13.438;2024-03-25T03:44:27;6.23;86.96
13091;DHT22;6611;52.604;13.438;2024-03-25T03:49:29;6.20;87.07
13091;DHT22;6611;52.604;13.438;2024-03-25T03:54:31;6.26;87.39
13091;DHT22;6611;52.604;13.438;2024-03-25T03:59:34;6.32;87.20
13091;DHT22;6611;52.604;13.438;2024-03-25T04:04:35;6.29;86.76
13091;DHT22;6611;52.604;13.438;2024-03-25T04:09:37;6.33;86.90
13091;DHT22;6611;52.604;13.438;2024-03-25T04:14:40;6.33;87.08
13091;DHT22;6611;52.604;13.438;2024-03-25T04:19:42;6.36;86.79
13091;DHT22;6611;52.604;13.438;2024-03-25T04:24:43;6.34;86.63
13091;DHT22;6611;52.604;13.438;2024-03-25T04:29:46;6.34;86.81
13091;DHT22;6611;52.604;13.438;2024-03-25T04:34:48;6.36;86.28
13091;DHT22;6611;52.604;13.438;2024-03-25T04:39:50;6.27;86.27
13091;DHT22;6611;52.604;13.438;2024-03-25T04:44:52;6.29;86.19
13091;DHT22;6611;52.604;13.438;2024-03-25T04:49:52;6.26;86.16
13091;DHT22;6611;52.604;13.438;2024-03-25T04:54:53;6.20;86.66
13091;DHT22;6611;52.604;13.438;2024-03-25T04:59:55;6.23;87.18
13091;DHT22;6611;52.604;13.438;2024-03-25T05:04:56;6.30;87.08
13091;DHT22;6611;52.604;13.438;2024-03-25T05:09:57;6.30;87.04
13091;DHT22;6611;52.604;13.438;2024-03-25T05:14:59;6.34;86.66
13091;DHT22;6611;52.604;13.438;2024-03-25T05:19:59;6.33;86.82
13091;DHT22;6611;52.604;13.438;2024-03-25T05:25:05;6.33;86.62
13091;DHT22;6611;52.604;13.438;2024-03-25T05:30:09;6.34;86.65
13091;DHT22;6611;52.604;13.438;2024-03-25T05:35:10;6.41;86.48
13091;DHT22;6611;52.604;13.438;2024-03-25T05:40:11;6.51;86.53
13091;DHT22;6611;52.604;13.438;2024-03-25T05:45:13;6.71;86.17
13091;DHT22;6611;52.604;13.438;2024-03-25T05:50:14;7.00;85.13
13091;DHT22;6611;52.604;13.438;2024-03-25T05:55:15;7.05;84.53
13091;DHT22;6611;52.604;13.438;2024-03-25T06:00:18;6.95;84.65
13091;DHT22;6611;52.604;13.438;2024-03-25T06:05:18;6.81;85.33
13091;DHT22;6611;52.604;13.438;2024-03-25T06:10:19;6.74;85.98
13091;DHT22;6611;52.604;13.438;2024-03-25T06:15:21;6.64;86.26
13091;DHT22;6611;52.604;13.438;2024-03-25T06:20:22;6.61;86.33
13091;DHT22;6611;52.604;13.438;2024-03-25T06:25:23;6.55;86.57
13091;DHT22;6611;52.604;13.438;2024-03-25T06:30:25;6.55;86.31
13091;DHT22;6611;52.604;13.438;2024-03-25T06:35:44;6.50;86.55
13091;DHT22;6611;52.604;13.438;2024-03-25T06:40:45;6.53;87.16
13091;DHT22;6611;52.604;13.438;2024-03-25T06:45:47;6.58;86.69
13091;DHT22;6611;52.604;13.438;2024-03-25T06:50:55;6.54;86.86
13091;DHT22;6611;52.604;13.438;2024-03-25T06:55:57;6.48;87.29
13091;DHT22;6611;52.604;13.438;2024-03-25T07:01:04;6.55;87.22
13091;DHT22;6611;52.604;13.438;2024-03-25T07:06:05;6.51;87.44
13091;DHT22;6611;52.604;13.438;2024-03-25T07:11:06;6.57;87.12
13091;DHT22;6611;52.604;13.438;2024-03-25T07:16:08;6.51;87.75
13091;DHT22;6611;52.604;13.438;2024-03-25T07:21:09;6.61;87.09
13091;DHT22;6611;52.604;13.438;2024-03-25T07:26:09;6.58;86.70
13091;DHT22;6611;52.604;13.438;2024-03-25T07:31:11;6.58;87.01
13091;DHT22;6611;52.604;13.438;2024-03-25T07:36:12;6.70;86.44
13091;DHT22;6611;52.604;13.438;2024-03-25T07:41:13;6.68;86.28
13091;DHT22;6611;52.604;13.438;2024-03-25T07:46:15;6.75;86.18
13091;DHT22;6611;52.604;13.438;2024-03-25T07:51:16;6.78;86.32
13091;DHT22;6611;52.604;13.438;2024-03-25T07:56:17;6.75;86.59
13091;DHT22;6611;52.604;13.438;2024-03-25T08:01:19;6.79;86.70
13091;DHT22;6611;52.604;13.438;2024-03-25T08:06:20;6.79;86.49
13091;DHT22;6611;52.604;13.438;2024-03-25T08:11:21;6.82;86.27
13091;DHT22;6611;52.604;13.438;2024-03-25T08:16:23;6.79;86.82
13091;DHT22;6611;52.604;13.438;2024-03-25T08:21:24;6.91;86.95
13091;DHT22;6611;52.604;13.438;2024-03-25T08:26:24;7.02;86.85
13091;DHT22;6611;52.604;13.438;2024-03-25T08:31:27;7.50;86.04
13091;DHT22;6611;52.604;13.438;2024-03-25T08:36:27;7.72;85.04
13091;DHT22;6611;52.604;13.438;2024-03-25T08:41:28;8.06;83.94
13091;DHT22;6611;52.604;13.438;2024-03-25T08:46:30;8.14;82.60
13091;DHT22;6611;52.604;13.438;2024-03-25T08:51:31;8.21;81.90
13091;DHT22;6611;52.604;13.438;2024-03-25T08:56:32;8.34;80.52
13091;DHT22;6611;52.604;13.438;2024-03-25T09:01:34;8.52;81.45
13091;DHT22;6611;52.604;13.438;2024-03-25T09:06:34;8.86;80.52
13091;DHT22;6611;52.604;13.438;2024-03-25T09:11:35;8.86;78.47
13091;DHT22;6611;52.604;13.438;2024-03-25T09:16:37;8.47;80.31
13091;DHT22;6611;52.604;13.438;2024-03-25T09:21:38;8.59;80.96
13091;DHT22;6611;52.604;13.438;2024-03-25T09:26:38;8.72;80.99
13091;DHT22;6611;52.604;13.438;2024-03-25T09:31:40;8.58;80.98
13091;DHT22;6611;52.604;13.438;2024-03-25T09:36:41;8.42;80.88
13091;DHT22;6611;52.604;13.438;2024-03-25T09:41:43;8.33;81.37
13091;DHT22;6611;52.604;13.438;2024-03-25T09:46:45;7.82;81.66
13091;DHT22;6611;52.604;13.438;2024-03-25T09:51:46;7.47;84.11
13091;DHT22;6611;52.604;13.438;2024-03-25T09:56:46;7.41;85.10
13091;DHT22;6611;52.604;13.438;2024-03-25T10:01:49;7.48;85.28
13091;DHT22;6611;52.604;13.438;2024-03-25T10:06:50;7.82;86.17
13091;DHT22;6611;52.604;13.438;2024-03-25T10:11:51;7.85;85.32
13091;DHT22;6611;52.604;13.438;2024-03-25T10:16:53;8.03;84.94
13091;DHT22;6611;52.604;13.438;2024-03-25T10:22:01;8.26;84.30
13091;DHT22;6611;52.604;13.438;2024-03-25T10:27:02;8.38;83.93
13091;DHT22;6611;52.604;13.438;2024-03-25T10:32:05;8.51;84.08
13091;DHT22;6611;52.604;13.438;2024-03-25T10:37:08;8.54;83.57
13091;DHT22;6611;52.604;13.438;2024-03-25T10:42:13;8.58;83.81
13091;DHT22;6611;52.604;13.438;2024-03-25T10:47:20;8.47;82.81
13091;DHT22;6611;52.604;13.438;2024-03-25T10:52:22;8.68;82.49
13091;DHT22;6611;52.604;13.438;2024-03-25T10:57:24;8.79;81.64
13091;DHT22;6611;52.604;13.438;2024-03-25T11:02:27;8.92;80.84
13091;DHT22;6611;52.604;13.438;2024-03-25T11:07:31;9.09;78.83
13091;DHT22;6611;52.604;13.438;2024-03-25T11:12:32;9.20;77.72
13091;DHT22;6611;52.604;13.438;2024-03-25T11:17:34;9.35;77.80
13091;DHT22;6611;52.604;13.438;2024-03-25T11:22:35;10.38;75.68
13091;DHT22;6611;52.604;13.438;2024-03-25T11:27:36;11.43;73.92
13091;DHT22;6611;52.604;13.438;2024-03-25T11:32:46;11.39;69.46
13091;DHT22;6611;52.604;13.438;2024-03-25T11:37:47;11.17;71.40
13091;DHT22;6611;52.604;13.438;2024-03-25T11:42:48;11.46;67.50
13091;DHT22;6611;52.604;13.438;2024-03-25T11:47:50;11.51;65.07
13091;DHT22;6611;52.604;13.438;2024-03-25T11:52:50;11.69;64.43
13091;DHT22;6611;52.604;13.438;2024-03-25T11:57:55;11.87;59.98
13091;DHT22;6611;52.604;13.438;2024-03-25T12:02:57;12.05;63.54
13091;DHT22;6611;52.604;13.438;2024-03-25T12:07:58;12.56;61.99
13091;DHT22;6611;52.604;13.438;2024-03-25T12:12:58;12.93;61.51
13091;DHT22;6611;52.604;13.438;2024-03-25T12:18:01;12.24;60.72
13091;DHT22;6611;52.604;13.438;2024-03-25T12:23:01;12.60;59.60
13091;DHT22;6611;52.604;13.438;2024-03-25T12:28:08;13.10;57.58
13091;DHT22;6611;52.604;13.438;2024-03-25T12:33:10;12.88;56.61
13091;DHT22;6611;52.604;13.438;2024-03-25T12:38:24;12.76;57.30
13091;DHT22;6611;52.604;13.438;2024-03-25T12:43:25;12.36;57.15
13091;DHT22;6611;52.604;13.438;2024-03-25T12:48:28;11.55;58.96
13091;DHT22;6611;52.604;13.438;2024-03-25T12:53:28;11.38;63.32
13091;DHT22;6611;52.604;13.438;2024-03-25T12:58:29;11.45;60.14
13091;DHT22;6611;52.604;13.438;2024-03-25T13:03:31;11.80;60.04
13091;DHT22;6611;52.604;13.438;2024-03-25T13:08:32;12.55;59.44
13091;DHT22;6611;52.604;13.438;2024-03-25T13:13:33;12.41;57.03
13091;DHT22;6611;52.604;13.438;2024-03-25T13:18:35;11.66;59.90
13091;DHT22;6611;52.604;13.438;2024-03-25T13:23:35;11.17;61.13
13091;DHT22;6611;52.604;13.438;2024-03-25T13:28:36;10.79;61.78
13091;DHT22;6611;52.604;13.438;2024-03-25T13:33:38;10.46;61.17
13091;DHT22;6611;52.604;13.438;2024-03-25T13:38:39;10.52;60.56
13091;DHT22;6611;52.604;13.438;2024-03-25T13:43:42;10.52;61.55
13091;DHT22;6611;52.604;13.438;2024-03-25T13:48:46;10.44;62.77
13091;DHT22;6611;52.604;13.438;2024-03-25T13:53:47;10.63;61.65
13091;DHT22;6611;52.604;13.438;2024-03-25T13:58:48;10.69;60.67
13091;DHT22;6611;52.604;13.438;2024-03-25T14:03:50;10.90;59.29
13091;DHT22;6611;52.604;13.438;2024-03-25T14:08:50;10.92;60.08
13091;DHT22;6611;52.604;13.438;2024-03-25T14:13:51;11.18;58.72
13091;DHT22;6611;52.604;13.438;2024-03-25T14:18:53;10.81;61.06
13091;DHT22;6611;52.604;13.438;2024-03-25T14:23:54;10.58;61.95
13091;DHT22;6611;52.604;13.438;2024-03-25T14:28:54;10.30;61.24
13091;DHT22;6611;52.604;13.438;2024-03-25T14:33:57;10.32;61.71
13091;DHT22;6611;52.604;13.438;2024-03-25T14:38:58;10.63;62.16
13091;DHT22;6611;52.604;13.438;2024-03-25T14:43:59;10.77;59.74
13091;DHT22;6611;52.604;13.438;2024-03-25T14:49:01;11.34;57.65
13091;DHT22;6611;52.604;13.438;2024-03-25T14:54:02;11.11;57.14
13091;DHT22;6611;52.604;13.438;2024-03-25T14:59:02;11.36;58.57
13091;DHT22;6611;52.604;13.438;2024-03-25T15:04:05;11.97;58.45
13091;DHT22;6611;52.604;13.438;2024-03-25T15:09:06;12.41;55.34
13091;DHT22;6611;52.604;13.438;2024-03-25T15:14:07;12.46;54.15
13091;DHT22;6611;52.604;13.438;2024-03-25T15:19:09;11.83;56.28
13091;DHT22;6611;52.604;13.438;2024-03-25T15:24:09;11.21;61.16
13091;DHT22;6611;52.604;13.438;2024-03-25T15:29:10;10.77;61.16
13091;DHT22;6611;52.604;13.438;2024-03-25T15:34:12;10.44;62.58
13091;DHT22;6611;52.604;13.438;2024-03-25T15:39:14;9.83;64.01
13091;DHT22;6611;52.604;13.438;2024-03-25T15:44:15;9.46;66.46
13091;DHT22;6611;52.604;13.438;2024-03-25T15:49:18;9.13;69.76
13091;DHT22;6611;52.604;13.438;2024-03-25T15:54:18;8.90;73.46
13091;DHT22;6611;52.604;13.438;2024-03-25T15:59:19;8.97;72.74
13091;DHT22;6611;52.604;13.438;2024-03-25T16:04:21;8.90;72.77
13091;DHT22;6611;52.604;13.438;2024-03-25T16:09:22;9.18;72.03
13091;DHT22;6611;52.604;13.438;2024-03-25T16:14:23;9.13;70.88
13091;DHT22;6611;52.604;13.438;2024-03-25T16:19:27;9.06;71.08
13091;DHT22;6611;52.604;13.438;2024-03-25T16:24:28;8.99;71.23
13091;DHT22;6611;52.604;13.438;2024-03-25T16:29:29;8.92;70.80
13091;DHT22;6611;52.604;13.438;2024-03-25T16:34:33;8.86;71.31
13091;DHT22;6611;52.604;13.438;2024-03-25T16:39:34;8.80;72.10
13091;DHT22;6611;52.604;13.438;2024-03-25T16:44:35;8.75;71.19
13091;DHT22;6611;52.604;13.438;2024-03-25T16:49:37;8.72;71.73
13091;DHT22;6611;52.604;13.438;2024-03-25T16:54:38;8.54;72.71
13091;DHT22;6611;52.604;13.438;2024-03-25T16:59:39;8.45;72.92
13091;DHT22;6611;52.604;13.438;2024-03-25T17:04:41;8.29;74.10
13091;DHT22;6611;52.604;13.438;2024-03-25T17:09:41;8.10;74.73
13091;DHT22;6611;52.604;13.438;2024-03-25T17:14:46;7.87;75.60
13091;DHT22;6611;52.604;13.438;2024-03-25T17:19:48;7.68;76.15
13091;DHT22;6611;52.604;13.438;2024-03-25T17:24:49;7.61;76.17
13091;DHT22;6611;52.604;13.438;2024-03-25T17:29:49;7.52;76.52
13091;DHT22;6611;52.604;13.438;2024-03-25T17:34:51;7.34;76.99
13091;DHT22;6611;52.604;13.438;2024-03-25T17:39:52;7.15;78.14
13091;DHT22;6611;52.604;13.438;2024-03-25T17:44:53;6.92;79.11
13091;DHT22;6611;52.604;13.438;2024-03-25T17:49:55;6.82;79.68
13091;DHT22;6611;52.604;13.438;2024-03-25T17:54:56;6.72;79.65
13091;DHT22;6611;52.604;13.438;2024-03-25T17:59:57;6.63;79.66
13091;DHT22;6611;52.604;13.438;2024-03-25T18:04:59;6.55;79.78
13091;DHT22;6611;52.604;13.438;2024-03-25T18:10:00;6.41;80.41
13091;DHT22;6611;52.604;13.438;2024-03-25T18:15:01;6.20;80.61
13091;DHT22;6611;52.604;13.438;2024-03-25T18:20:03;6.03;80.97
13091;DHT22;6611;52.604;13.438;2024-03-25T18:25:05;6.06;80.76
13091;DHT22;6611;52.604;13.438;2024-03-25T18:30:06;5.92;81.78
13091;DHT22;6611;52.604;13.438;2024-03-25T18:35:09;5.92;80.96
13091;DHT22;6611;52.604;13.438;2024-03-25T18:40:10;5.74;81.48
13091;DHT22;6611;52.604;13.438;2024-03-25T18:45:11;5.61;81.84
13091;DHT22;6611;52.604;13.438;2024-03-25T18:50:13;5.57;81.56
13091;DHT22;6611;52.604;13.438;2024-03-25T18:55:13;5.44;82.04
13091;DHT22;6611;52.604;13.438;2024-03-25T19:00:15;5.37;82.01
13091;DHT22;6611;52.604;13.438;2024-03-25T19:05:17;5.23;81.95
13091;DHT22;6611;52.604;13.438;2024-03-25T19:10:18;5.12;82.97
13091;DHT22;6611;52.604;13.438;2024-03-25T19:15:19;5.12;82.26
13091;DHT22;6611;52.604;13.438;2024-03-25T19:20:21;4.92;82.97
13091;DHT22;6611;52.604;13.438;2024-03-25T19:25:21;4.84;83.75
13091;DHT22;6611;52.604;13.438;2024-03-25T19:30:22;4.78;82.90
13091;DHT22;6611;52.604;13.438;2024-03-25T19:35:24;4.70;83.36
13091;DHT22;6611;52.604;13.438;2024-03-25T19:40:25;4.68;82.86
13091;DHT22;6611;52.604;13.438;2024-03-25T19:45:26;4.56;84.39
13091;DHT22;6611;52.604;13.438;2024-03-25T19:50:28;4.46;84.14
13091;DHT22;6611;52.604;13.438;2024-03-25T19:55:28;4.53;83.69
13091;DHT22;6611;52.604;13.438;2024-03-25T20:00:29;4.48;84.05
13091;DHT22;6611;52.604;13.438;2024-03-25T20:05:31;4.45;83.39
13091;DHT22;6611;52.604;13.438;2024-03-25T20:10:32;4.38;83.40
13091;DHT22;6611;52.604;13.438;2024-03-25T20:15:33;4.35;83.72
13091;DHT22;6611;52.604;13.438;2024-03-25T20:20:35;4.15;83.75
13091;DHT22;6611;52.604;13.438;2024-03-25T20:25:35;4.22;83.16
13091;DHT22;6611;52.604;13.438;2024-03-25T20:30:36;4.15;83.65
13091;DHT22;6611;52.604;13.438;2024-03-25T20:35:38;4.08;83.53
13091;DHT22;6611;52.604;13.438;2024-03-25T20:40:39;3.99;83.46
13091;DHT22;6611;52.604;13.438;2024-03-25T20:45:40;3.88;83.88
13091;DHT22;6611;52.604;13.438;2024-03-25T20:50:42;3.87;83.86
13091;DHT22;6611;52.604;13.438;2024-03-25T20:55:42;3.77;83.79
13091;DHT22;6611;52.604;13.438;2024-03-25T21:00:43;3.64;83.54
13091;DHT22;6611;52.604;13.438;2024-03-25T21:05:53;3.77;83.10
13091;DHT22;6611;52.604;13.438;2024-03-25T21:10:54;3.74;82.97
13091;DHT22;6611;52.604;13.438;2024-03-25T21:15:55;3.60;83.95
13091;DHT22;6611;52.604;13.438;2024-03-25T21:20:57;3.58;84.12
13091;DHT22;6611;52.604;13.438;2024-03-25T21:25:58;3.51;84.16
13091;DHT22;6611;52.604;13.438;2024-03-25T21:30:58;3.55;83.48
13091;DHT22;6611;52.604;13.438;2024-03-25T21:36:00;3.43;84.28
13091;DHT22;6611;52.604;13.438;2024-03-25T21:41:01;3.29;84.72
13091;DHT22;6611;52.604;13.438;2024-03-25T21:46:02;3.19;84.39
13091;DHT22;6611;52.604;13.438;2024-03-25T21:51:05;3.22;84.50
13091;DHT22;6611;52.604;13.438;2024-03-25T21:56:05;3.14;84.89
13091;DHT22;6611;52.604;13.438;2024-03-25T22:01:06;3.14;85.14
13091;DHT22;6611;52.604;13.438;2024-03-25T22:06:08;3.12;84.89
13091;DHT22;6611;52.604;13.438;2024-03-25T22:11:09;3.11;85.14
13091;DHT22;6611;52.604;13.438;2024-03-25T22:16:10;3.08;84.58
13091;DHT22;6611;52.604;13.438;2024-03-25T22:21:12;3.00;84.88
13091;DHT22;6611;52.604;13.438;2024-03-25T22:26:12;2.94;84.97
13091;DHT22;6611;52.604;13.438;2024-03-25T22:31:13;2.86;85.14
13091;DHT22;6611;52.604;13.438;2024-03-25T22:36:15;2.81;85.01
13091;DHT22;6611;52.604;13.438;2024-03-25T22:41:16;2.79;84.98
13091;DHT22;6611;52.604;13.438;2024-03-25T22:46:17;2.67;84.72
13091;DHT22;6611;52.604;13.438;2024-03-25T22:51:20;2.64;85.08
13091;DHT22;6611;52.604;13.438;2024-03-25T22:56:20;2.55;84.49
13091;DHT22;6611;52.604;13.438;2024-03-25T23:01:21;2.48;84.96
13091;DHT22;6611;52.604;13.438;2024-03-25T23:06:23;2.42;84.53
13091;DHT22;6611;52.604;13.438;2024-03-25T23:11:24;2.34;85.36
13091;DHT22;6611;52.604;13.438;2024-03-25T23:16:24;2.31;85.18
13091;DHT22;6611;52.604;13.438;2024-03-25T23:21:29;2.28;85.23
13091;DHT22;6611;52.604;13.438;2024-03-25T23:26:29;2.21;84.42
13091;DHT22;6611;52.604;13.438;2024-03-25T23:31:30;2.17;84.54
13091;DHT22;6611;52.604;13.438;2024-03-25T23:36:32;2.20;84.40
13091;DHT22;6611;52.604;13.438;2024-03-25T23:41:33;2.11;84.47
13091;DHT22;6611;52.604;13.438;2024-03-25T23:46:33;2.07;84.77
13091;DHT22;6611;52.604;13.438;2024-03-25T23:51:36;2.07;84.83
13091;DHT22;6611;52.604;13.438;2024-03-25T23:56:36;1.92;84.76
